Basic Princess — 3EVW9 — position and weather

sailwx.info

Track history (hours):
 
Tides and Currents Weather Stations Pressure Air Temp Water Temp Dewpoint Dewpoint Depression Visibility Wind Speed Wind Dir Waves Ship Positions

Basic Princess

Last reported at 2017-Nov-03 02:11 UTC. Time now 2017-Nov-24 18:22 UTC.
Position N 40°39' E 018°07'.
Warning: this ship's position is 21 days out of date.

Length 180 m; draft 10.2 m.

Type: Cargo ship. MMSI: 373240000.

Date/timePositionNaut miles runAvg speedWind from/ knotsBaromVisibWave heightAir tempDewpointWater temp
2017-Nov-03 02:11N 40°39' E 018°07'0 0.0
2017-Nov-02 23:05N 40°39' E 018°07'  
2017-Oct-27 17:08N 40°39' E 018°07'0 0.0
2017-Oct-27 17:00N 40°39' E 018°07'0 0.0
2017-Oct-27 16:27N 40°39' E 018°07'2 1.1
2017-Oct-27 14:26N 40°38' E 018°10'1111.0
2017-Oct-27 13:26N 40°32' E 018°21'1012.7
2017-Oct-27 12:40N 40°25' E 018°31'912.4
2017-Oct-27 11:57N 40°17' E 018°36'1011.8
2017-Oct-27 11:06N 40°08' E 018°42'112.3
2017-Oct-27 11:00N 40°07' E 018°42'712.3
2017-Oct-27 10:26N 40°01' E 018°39'612.1
2017-Oct-27 09:56N 39°55' E 018°37'512.0
2017-Oct-27 09:30N 39°50' E 018°35'612.5
2017-Oct-27 09:00N 39°44' E 018°33'612.1
2017-Oct-27 08:31N 39°38' E 018°31'612.0
2017-Oct-27 08:01N 39°32' E 018°30'612.2
2017-Oct-27 07:30N 39°26' E 018°28'612.2
2017-Oct-27 07:01N 39°20' E 018°26'612.3
2017-Oct-27 06:31N 39°14' E 018°24'612.3
2017-Oct-27 06:00N 39°08' E 018°22'712.5
2017-Oct-27 05:28N 39°02' E 018°20'612.5
2017-Oct-27 05:00N 38°56' E 018°18'612.7
2017-Oct-27 04:30N 38°50' E 018°16'612.5
2017-Oct-27 04:00N 38°44' E 018°14'812.4
2017-Oct-27 03:23N 38°36' E 018°12'612.4
2017-Oct-27 02:55N 38°31' E 018°10'512.5
2017-Oct-27 02:30N 38°26' E 018°08'712.3
2017-Oct-27 01:57N 38°19' E 018°06'19711.2
2017-Oct-26 08:20N 36°24' E 014°45'512.2
2017-Oct-26 07:58N 36°25' E 014°39'612.7
2017-Oct-26 07:30N 36°26' E 014°32'612.9
2017-Oct-26 07:00N 36°28' E 014°25'612.9
2017-Oct-26 06:30N 36°30' E 014°17'713.0
2017-Oct-26 06:00N 36°32' E 014°09'613.0
2017-Oct-26 05:30N 36°34' E 014°02'713.0
2017-Oct-26 05:00N 36°36' E 013°54'713.0
2017-Oct-26 04:30N 36°38' E 013°46'713.0
2017-Oct-26 04:00N 36°40' E 013°39'  
Track history (hours):
 
Tides and Currents Weather Stations Pressure Air Temp Water Temp Dewpoint Dewpoint Depression Visibility Wind Speed Wind Dir Waves Ship Positions

Basic Princess

Last reported at 2017-Nov-03 02:11 UTC. Time now 2017-Nov-24 18:22 UTC.
Position N 40°39' E 018°07'.
Warning: this ship's position is 21 days out of date.

Length 180 m; draft 10.2 m.

Type: Cargo ship. MMSI: 373240000.

Date/timePositionNaut miles runAvg speedWind from/ knotsBaromVisibWave heightAir tempDewpointWater temp
2017-Nov-03 02:11N 40°39' E 018°07'0 0.0
2017-Nov-02 23:05N 40°39' E 018°07'  
2017-Oct-27 17:08N 40°39' E 018°07'0 0.0
2017-Oct-27 17:00N 40°39' E 018°07'0 0.0
2017-Oct-27 16:27N 40°39' E 018°07'2 1.1
2017-Oct-27 14:26N 40°38' E 018°10'1111.0
2017-Oct-27 13:26N 40°32' E 018°21'1012.7
2017-Oct-27 12:40N 40°25' E 018°31'912.4
2017-Oct-27 11:57N 40°17' E 018°36'1011.8
2017-Oct-27 11:06N 40°08' E 018°42'112.3
2017-Oct-27 11:00N 40°07' E 018°42'712.3
2017-Oct-27 10:26N 40°01' E 018°39'612.1
2017-Oct-27 09:56N 39°55' E 018°37'512.0
2017-Oct-27 09:30N 39°50' E 018°35'612.5
2017-Oct-27 09:00N 39°44' E 018°33'612.1
2017-Oct-27 08:31N 39°38' E 018°31'612.0
2017-Oct-27 08:01N 39°32' E 018°30'612.2
2017-Oct-27 07:30N 39°26' E 018°28'612.2
2017-Oct-27 07:01N 39°20' E 018°26'612.3
2017-Oct-27 06:31N 39°14' E 018°24'612.3
2017-Oct-27 06:00N 39°08' E 018°22'712.5
2017-Oct-27 05:28N 39°02' E 018°20'612.5
2017-Oct-27 05:00N 38°56' E 018°18'612.7
2017-Oct-27 04:30N 38°50' E 018°16'612.5
2017-Oct-27 04:00N 38°44' E 018°14'812.4
2017-Oct-27 03:23N 38°36' E 018°12'612.4
2017-Oct-27 02:55N 38°31' E 018°10'512.5
2017-Oct-27 02:30N 38°26' E 018°08'712.3
2017-Oct-27 01:57N 38°19' E 018°06'19711.2
2017-Oct-26 08:20N 36°24' E 014°45'512.2
2017-Oct-26 07:58N 36°25' E 014°39'612.7
2017-Oct-26 07:30N 36°26' E 014°32'612.9
2017-Oct-26 07:00N 36°28' E 014°25'612.9
2017-Oct-26 06:30N 36°30' E 014°17'713.0
2017-Oct-26 06:00N 36°32' E 014°09'613.0
2017-Oct-26 05:30N 36°34' E 014°02'713.0
2017-Oct-26 05:00N 36°36' E 013°54'713.0
2017-Oct-26 04:30N 36°38' E 013°46'713.0
2017-Oct-26 04:00N 36°40' E 013°39'  

Dump ship's entire track history